sensor_id;sensor_type;location;lat;lon;timestamp;pressure;altitude;pressure_sealevel;temperature
48854;BMP280;34673;52.808;17.856;2023-10-13T00:02:00;100375.97;;;9.79
48854;BMP280;34673;52.808;17.856;2023-10-13T00:04:28;100393.19;;;9.86
48854;BMP280;34673;52.808;17.856;2023-10-13T00:06:56;100396.59;;;9.85
48854;BMP280;34673;52.808;17.856;2023-10-13T00:09:24;100399.19;;;9.85
48854;BMP280;34673;52.808;17.856;2023-10-13T00:12:08;100396.59;;;9.85
48854;BMP280;34673;52.808;17.856;2023-10-13T00:14:37;100388.00;;;9.86
48854;BMP280;34673;52.808;17.856;2023-10-13T00:17:05;100389.72;;;9.87
48854;BMP280;34673;52.808;17.856;2023-10-13T00:19:43;100391.44;;;9.88
48854;BMP280;34673;52.808;17.856;2023-10-13T00:22:14;100384.53;;;9.90
48854;BMP280;34673;52.808;17.856;2023-10-13T00:24:50;100383.69;;;9.89
48854;BMP280;34673;52.808;17.856;2023-10-13T00:27:20;100379.34;;;9.93
48854;BMP280;34673;52.808;17.856;2023-10-13T00:30:04;100374.22;;;9.88
48854;BMP280;34673;52.808;17.856;2023-10-13T00:32:52;100381.97;;;9.91
48854;BMP280;34673;52.808;17.856;2023-10-13T00:35:24;100380.22;;;9.95
48854;BMP280;34673;52.808;17.856;2023-10-13T00:37:52;100381.09;;;9.94
48854;BMP280;34673;52.808;17.856;2023-10-13T00:40:22;100372.50;;;9.89
48854;BMP280;34673;52.808;17.856;2023-10-13T00:43:00;100386.25;;;9.88
48854;BMP280;34673;52.808;17.856;2023-10-13T00:45:56;100369.06;;;9.84
48854;BMP280;34673;52.808;17.856;2023-10-13T00:48:37;100375.97;;;9.82
48854;BMP280;34673;52.808;17.856;2023-10-13T00:51:19;100358.84;;;9.62
48854;BMP280;34673;52.808;17.856;2023-10-13T00:54:04;100390.63;;;9.73
48854;BMP280;34673;52.808;17.856;2023-10-13T00:56:37;100365.75;;;9.54
48854;BMP280;34673;52.808;17.856;2023-10-13T00:59:08;100397.50;;;9.76
48854;BMP280;34673;52.808;17.856;2023-10-13T01:01:37;100396.63;;;9.82
48854;BMP280;34673;52.808;17.856;2023-10-13T01:04:04;100392.34;;;9.81
48854;BMP280;34673;52.808;17.856;2023-10-13T01:06:35;100387.19;;;9.73
48854;BMP280;34673;52.808;17.856;2023-10-13T01:09:09;100384.63;;;9.68
48854;BMP280;34673;52.808;17.856;2023-10-13T01:11:44;100382.97;;;9.58
48854;BMP280;34673;52.808;17.856;2023-10-13T01:14:12;100388.13;;;9.52
48854;BMP280;34673;52.808;17.856;2023-10-13T01:16:42;100389.88;;;9.44
48854;BMP280;34673;52.808;17.856;2023-10-13T01:19:14;100381.31;;;9.29
48854;BMP280;34673;52.808;17.856;2023-10-13T01:21:48;100386.47;;;9.29
48854;BMP280;34673;52.808;17.856;2023-10-13T01:24:15;100396.81;;;9.26
48854;BMP280;34673;52.808;17.856;2023-10-13T01:26:52;100396.84;;;9.20
48854;BMP280;34673;52.808;17.856;2023-10-13T01:29:19;100396.84;;;9.11
48854;BMP280;34673;52.808;17.856;2023-10-13T01:31:53;100395.13;;;9.10
48854;BMP280;34673;52.808;17.856;2023-10-13T01:34:20;100386.53;;;9.02
48854;BMP280;34673;52.808;17.856;2023-10-13T01:36:51;100376.22;;;9.05
48854;BMP280;34673;52.808;17.856;2023-10-13T01:39:21;100355.56;;;8.90
48854;BMP280;34673;52.808;17.856;2023-10-13T01:41:49;100377.06;;;9.01
48854;BMP280;34673;52.808;17.856;2023-10-13T01:44:27;100383.94;;;8.97
48854;BMP280;34673;52.808;17.856;2023-10-13T01:47:00;100391.72;;;8.96
48854;BMP280;34673;52.808;17.856;2023-10-13T01:49:34;100383.09;;;8.94
48854;BMP280;34673;52.808;17.856;2023-10-13T01:52:17;100379.66;;;8.88
48854;BMP280;34673;52.808;17.856;2023-10-13T01:54:46;100391.69;;;8.90
48854;BMP280;34673;52.808;17.856;2023-10-13T01:57:17;100382.25;;;8.85
48854;BMP280;34673;52.808;17.856;2023-10-13T01:59:51;100377.97;;;8.87
48854;BMP280;34673;52.808;17.856;2023-10-13T02:02:18;100375.38;;;8.86
48854;BMP280;34673;52.808;17.856;2023-10-13T02:04:57;100376.22;;;8.90
48854;BMP280;34673;52.808;17.856;2023-10-13T02:07:28;100373.66;;;8.91
48854;BMP280;34673;52.808;17.856;2023-10-13T02:10:02;100373.66;;;8.91
48854;BMP280;34673;52.808;17.856;2023-10-13T02:12:33;100364.19;;;8.88
48854;BMP280;34673;52.808;17.856;2023-10-13T02:15:11;100359.03;;;8.82
48854;BMP280;34673;52.808;17.856;2023-10-13T02:17:53;100371.06;;;8.80
48854;BMP280;34673;52.808;17.856;2023-10-13T02:20:22;100371.06;;;8.77
48854;BMP280;34673;52.808;17.856;2023-10-13T02:22:58;100383.13;;;8.80
48854;BMP280;34673;52.808;17.856;2023-10-13T02:25:25;100363.34;;;8.70
48854;BMP280;34673;52.808;17.856;2023-10-13T02:28:13;100371.09;;;8.74
48854;BMP280;34673;52.808;17.856;2023-10-13T02:30:43;100372.81;;;8.69
48854;BMP280;34673;52.808;17.856;2023-10-13T02:33:16;100374.50;;;8.70
48854;BMP280;34673;52.808;17.856;2023-10-13T02:35:57;100376.22;;;8.65
48854;BMP280;34673;52.808;17.856;2023-10-13T02:38:25;100375.38;;;8.61
48854;BMP280;34673;52.808;17.856;2023-10-13T02:41:02;100372.78;;;8.54
48854;BMP280;34673;52.808;17.856;2023-10-13T02:43:34;100374.50;;;8.52
48854;BMP280;34673;52.808;17.856;2023-10-13T02:46:02;100382.22;;;8.52
48854;BMP280;34673;52.808;17.856;2023-10-13T02:48:30;100383.97;;;8.50
48854;BMP280;34673;52.808;17.856;2023-10-13T02:51:08;100375.38;;;8.45
48854;BMP280;34673;52.808;17.856;2023-10-13T02:53:45;100381.41;;;8.50
48854;BMP280;34673;52.808;17.856;2023-10-13T02:56:16;100377.94;;;8.51
48854;BMP280;34673;52.808;17.856;2023-10-13T02:58:52;100383.09;;;8.51
48854;BMP280;34673;52.808;17.856;2023-10-13T03:01:33;100386.56;;;8.53
48854;BMP280;34673;52.808;17.856;2023-10-13T03:04:04;100390.84;;;8.51
48854;BMP280;34673;52.808;17.856;2023-10-13T03:06:36;100383.09;;;8.48
48854;BMP280;34673;52.808;17.856;2023-10-13T03:09:08;100386.56;;;8.53
48854;BMP280;34673;52.808;17.856;2023-10-13T03:11:46;100389.97;;;8.55
48854;BMP280;34673;52.808;17.856;2023-10-13T03:14:22;100379.69;;;8.58
48854;BMP280;34673;52.808;17.856;2023-10-13T03:17:01;100387.41;;;8.62
48854;BMP280;34673;52.808;17.856;2023-10-13T03:19:33;100386.53;;;8.68
48854;BMP280;34673;52.808;17.856;2023-10-13T03:22:05;100372.81;;;8.69
48854;BMP280;34673;52.808;17.856;2023-10-13T03:24:40;100373.66;;;8.68
48854;BMP280;34673;52.808;17.856;2023-10-13T03:27:16;100376.22;;;8.65
48854;BMP280;34673;52.808;17.856;2023-10-13T03:29:45;100377.94;;;8.63
48854;BMP280;34673;52.808;17.856;2023-10-13T03:32:22;100360.75;;;8.56
48854;BMP280;34673;52.808;17.856;2023-10-13T03:34:54;100372.78;;;8.54
48854;BMP280;34673;52.808;17.856;2023-10-13T03:37:27;100382.25;;;8.56
48854;BMP280;34673;52.808;17.856;2023-10-13T03:40:09;100381.38;;;8.56
48854;BMP280;34673;52.808;17.856;2023-10-13T03:45:34;100379.69;;;8.64
48854;BMP280;34673;52.808;17.856;2023-10-13T03:48:10;100381.38;;;8.62
48854;BMP280;34673;52.808;17.856;2023-10-13T03:50:55;100374.50;;;8.55
48854;BMP280;34673;52.808;17.856;2023-10-13T03:53:38;100369.34;;;8.55
48854;BMP280;34673;52.808;17.856;2023-10-13T03:56:22;100367.63;;;8.51
48854;BMP280;34673;52.808;17.856;2023-10-13T03:58:59;100369.34;;;8.52
48854;BMP280;34673;52.808;17.856;2023-10-13T04:01:33;100376.22;;;8.56
48854;BMP280;34673;52.808;17.856;2023-10-13T04:04:19;100366.75;;;8.65
48854;BMP280;34673;52.808;17.856;2023-10-13T04:07:15;100345.28;;;8.56
48854;BMP280;34673;52.808;17.856;2023-10-13T04:10:01;100345.31;;;8.53
48854;BMP280;34673;52.808;17.856;2023-10-13T04:12:49;100353.88;;;8.59
48854;BMP280;34673;52.808;17.856;2023-10-13T04:15:35;100343.56;;;8.64
48854;BMP280;34673;52.808;17.856;2023-10-13T04:18:28;100336.72;;;8.66
48854;BMP280;34673;52.808;17.856;2023-10-13T04:21:14;100340.16;;;8.63
48854;BMP280;34673;52.808;17.856;2023-10-13T04:23:59;100342.72;;;8.59
48854;BMP280;34673;52.808;17.856;2023-10-13T04:26:51;100341.84;;;8.57
48854;BMP280;34673;52.808;17.856;2023-10-13T04:29:38;100341.84;;;8.57
48854;BMP280;34673;52.808;17.856;2023-10-13T04:32:24;100335.00;;;8.53
48854;BMP280;34673;52.808;17.856;2023-10-13T04:35:05;100328.09;;;8.52
48854;BMP280;34673;52.808;17.856;2023-10-13T04:37:41;100322.09;;;8.51
48854;BMP280;34673;52.808;17.856;2023-10-13T04:40:25;100314.38;;;8.50
48854;BMP280;34673;52.808;17.856;2023-10-13T04:42:53;100321.22;;;8.54
48854;BMP280;34673;52.808;17.856;2023-10-13T04:45:20;100316.06;;;8.57
48854;BMP280;34673;52.808;17.856;2023-10-13T04:48:01;100322.94;;;8.67
48854;BMP280;34673;52.808;17.856;2023-10-13T04:51:00;100329.81;;;8.70
48854;BMP280;34673;52.808;17.856;2023-10-13T04:53:46;100329.81;;;8.68
48854;BMP280;34673;52.808;17.856;2023-10-13T04:56:32;100328.06;;;8.76
48854;BMP280;34673;52.808;17.856;2023-10-13T04:59:08;100330.66;;;8.76
48854;BMP280;34673;52.808;17.856;2023-10-13T05:01:45;100327.22;;;8.76
48854;BMP280;34673;52.808;17.856;2023-10-13T05:04:32;100333.22;;;8.79
48854;BMP280;34673;52.808;17.856;2023-10-13T05:07:06;100333.25;;;8.82
48854;BMP280;34673;52.808;17.856;2023-10-13T05:09:51;100337.53;;;8.91
48854;BMP280;34673;52.808;17.856;2023-10-13T05:12:37;100317.78;;;8.82
48854;BMP280;34673;52.808;17.856;2023-10-13T05:15:22;100348.69;;;9.04
48854;BMP280;34673;52.808;17.856;2023-10-13T05:18:08;100348.66;;;9.13
48854;BMP280;34673;52.808;17.856;2023-10-13T05:20:56;100349.50;;;9.17
48854;BMP280;34673;52.808;17.856;2023-10-13T05:23:42;100341.75;;;9.17
48854;BMP280;34673;52.808;17.856;2023-10-13T05:26:27;100346.94;;;9.21
48854;BMP280;34673;52.808;17.856;2023-10-13T05:29:13;100333.16;;;9.19
48854;BMP280;34673;52.808;17.856;2023-10-13T05:31:59;100326.28;;;9.21
48854;BMP280;34673;52.808;17.856;2023-10-13T05:34:45;100334.03;;;9.21
48854;BMP280;34673;52.808;17.856;2023-10-13T05:37:31;100312.53;;;9.16
48854;BMP280;34673;52.808;17.856;2023-10-13T05:40:17;100333.97;;;9.33
48854;BMP280;34673;52.808;17.856;2023-10-13T05:43:03;100339.97;;;9.42
48854;BMP280;34673;52.808;17.856;2023-10-13T05:45:49;100322.78;;;9.38
48854;BMP280;34673;52.808;17.856;2023-10-13T05:48:34;100328.72;;;9.57
48854;BMP280;34673;52.808;17.856;2023-10-13T05:51:30;100322.72;;;9.53
48854;BMP280;34673;52.808;17.856;2023-10-13T05:54:11;100324.38;;;9.63
48854;BMP280;34673;52.808;17.856;2023-10-13T05:56:43;100332.94;;;9.71
48854;BMP280;34673;52.808;17.856;2023-10-13T05:59:30;100299.47;;;9.54
48854;BMP280;34673;52.808;17.856;2023-10-13T06:02:18;100326.88;;;9.77
48854;BMP280;34673;52.808;17.856;2023-10-13T06:05:08;100333.75;;;9.80
48854;BMP280;34673;52.808;17.856;2023-10-13T06:07:55;100332.91;;;9.81
48854;BMP280;34673;52.808;17.856;2023-10-13T06:10:41;100327.78;;;9.74
48854;BMP280;34673;52.808;17.856;2023-10-13T06:13:27;100325.22;;;9.73
48854;BMP280;34673;52.808;17.856;2023-10-13T06:16:15;100324.31;;;9.79
48854;BMP280;34673;52.808;17.856;2023-10-13T06:19:02;100320.88;;;9.83
48854;BMP280;34673;52.808;17.856;2023-10-13T06:21:48;100307.09;;;9.81
48854;BMP280;34673;52.808;17.856;2023-10-13T06:24:34;100325.97;;;9.92
48854;BMP280;34673;52.808;17.856;2023-10-13T06:27:19;100332.84;;;9.93
48854;BMP280;34673;52.808;17.856;2023-10-13T06:30:05;100327.66;;;9.93
48854;BMP280;34673;52.808;17.856;2023-10-13T06:32:32;100331.94;;;10.02
48854;BMP280;34673;52.808;17.856;2023-10-13T06:35:00;100338.81;;;10.07
48854;BMP280;34673;52.808;17.856;2023-10-13T06:37:51;100343.97;;;10.07
48854;BMP280;34673;52.808;17.856;2023-10-13T06:40:18;100343.97;;;10.07
48854;BMP280;34673;52.808;17.856;2023-10-13T06:42:52;100349.13;;;10.07
48854;BMP280;34673;52.808;17.856;2023-10-13T06:45:40;100329.31;;;10.06
48854;BMP280;34673;52.808;17.856;2023-10-13T06:48:07;100345.66;;;10.11
48854;BMP280;34673;52.808;17.856;2023-10-13T06:50:38;100343.91;;;10.16
48854;BMP280;34673;52.808;17.856;2023-10-13T06:53:09;100341.28;;;10.19
48854;BMP280;34673;52.808;17.856;2023-10-13T06:55:39;100351.59;;;10.23
48854;BMP280;34673;52.808;17.856;2023-10-13T06:58:07;100349.03;;;10.27
48854;BMP280;34673;52.808;17.856;2023-10-13T07:00:40;100348.16;;;10.30
48854;BMP280;34673;52.808;17.856;2023-10-13T07:03:08;100345.53;;;10.33
48854;BMP280;34673;52.808;17.856;2023-10-13T07:05:45;100344.63;;;10.40
48854;BMP280;34673;52.808;17.856;2023-10-13T07:08:15;100332.53;;;10.42
48854;BMP280;34673;52.808;17.856;2023-10-13T07:10:54;100344.53;;;10.52
48854;BMP280;34673;52.808;17.856;2023-10-13T07:13:32;100337.59;;;10.57
48854;BMP280;34673;52.808;17.856;2023-10-13T07:16:06;100335.81;;;10.62
48854;BMP280;34673;52.808;17.856;2023-10-13T07:18:55;100329.75;;;10.70
48854;BMP280;34673;52.808;17.856;2023-10-13T07:21:22;100334.00;;;10.74
48854;BMP280;34673;52.808;17.856;2023-10-13T07:23:59;100324.50;;;10.74
48854;BMP280;34673;52.808;17.856;2023-10-13T07:26:36;100325.31;;;10.81
48854;BMP280;34673;52.808;17.856;2023-10-13T07:29:10;100321.84;;;10.82
48854;BMP280;34673;52.808;17.856;2023-10-13T07:31:38;100318.41;;;10.80
48854;BMP280;34673;52.808;17.856;2023-10-13T07:34:08;100314.94;;;10.84
48854;BMP280;34673;52.808;17.856;2023-10-13T07:36:53;100295.16;;;10.78
48854;BMP280;34673;52.808;17.856;2023-10-13T07:39:31;100299.38;;;10.87
48854;BMP280;34673;52.808;17.856;2023-10-13T07:42:02;100299.34;;;10.90
48854;BMP280;34673;52.808;17.856;2023-10-13T07:44:33;100288.91;;;10.96
48854;BMP280;34673;52.808;17.856;2023-10-13T07:47:01;100288.91;;;10.96
48854;BMP280;34673;52.808;17.856;2023-10-13T07:49:38;100283.69;;;11.02
48854;BMP280;34673;52.808;17.856;2023-10-13T07:52:08;100278.47;;;11.05
48854;BMP280;34673;52.808;17.856;2023-10-13T07:54:51;100283.56;;;11.12
48854;BMP280;34673;52.808;17.856;2023-10-13T07:57:42;100263.75;;;11.11
48854;BMP280;34673;52.808;17.856;2023-10-13T08:00:23;100257.66;;;11.15
48854;BMP280;34673;52.808;17.856;2023-10-13T08:03:09;100257.56;;;11.21
48854;BMP280;34673;52.808;17.856;2023-10-13T08:05:44;100265.28;;;11.27
48854;BMP280;34673;52.808;17.856;2023-10-13T08:08:31;100248.91;;;11.26
48854;BMP280;34673;52.808;17.856;2023-10-13T08:11:08;100253.91;;;11.40
48854;BMP280;34673;52.808;17.856;2023-10-13T08:13:53;100257.25;;;11.45
48854;BMP280;34673;52.808;17.856;2023-10-13T08:16:30;100248.63;;;11.46
48854;BMP280;34673;52.808;17.856;2023-10-13T08:19:23;100250.28;;;11.53
48854;BMP280;34673;52.808;17.856;2023-10-13T08:22:09;100229.59;;;11.49
48854;BMP280;34673;52.808;17.856;2023-10-13T08:24:51;100236.34;;;11.61
48854;BMP280;34673;52.808;17.856;2023-10-13T08:27:19;100249.19;;;11.68
48854;BMP280;34673;52.808;17.856;2023-10-13T08:29:59;100254.28;;;11.74
48854;BMP280;34673;52.808;17.856;2023-10-13T08:32:31;100256.81;;;11.79
48854;BMP280;34673;52.808;17.856;2023-10-13T08:34:59;100251.56;;;11.82
48854;BMP280;34673;52.808;17.856;2023-10-13T08:37:31;100248.09;;;11.83
48854;BMP280;34673;52.808;17.856;2023-10-13T08:40:17;100245.50;;;11.86
48854;BMP280;34673;52.808;17.856;2023-10-13T08:43:10;100249.69;;;11.93
48854;BMP280;34673;52.808;17.856;2023-10-13T08:45:40;100253.06;;;11.98
48854;BMP280;34673;52.808;17.856;2023-10-13T08:48:11;100242.81;;;11.92
48854;BMP280;34673;52.808;17.856;2023-10-13T08:53:28;100247.84;;;12.02
48854;BMP280;34673;52.808;17.856;2023-10-13T08:56:09;100246.09;;;12.04
48854;BMP280;34673;52.808;17.856;2023-10-13T08:59:00;100248.63;;;12.07
48854;BMP280;34673;52.808;17.856;2023-10-13T09:01:35;100246.84;;;12.10
48854;BMP280;34673;52.808;17.856;2023-10-13T09:04:21;100249.41;;;12.12
48854;BMP280;34673;52.808;17.856;2023-10-13T09:06:54;100251.97;;;12.15
48854;BMP280;34673;52.808;17.856;2023-10-13T09:09:49;100238.88;;;12.23
48854;BMP280;34673;52.808;17.856;2023-10-13T09:12:25;100232.72;;;12.28
48854;BMP280;34673;52.808;17.856;2023-10-13T09:15:04;100232.66;;;12.33
48854;BMP280;34673;52.808;17.856;2023-10-13T09:17:48;100238.53;;;12.42
48854;BMP280;34673;52.808;17.856;2023-10-13T09:20:30;100231.50;;;12.48
48854;BMP280;34673;52.808;17.856;2023-10-13T09:23:10;100224.44;;;12.56
48854;BMP280;34673;52.808;17.856;2023-10-13T09:25:40;100225.22;;;12.61
48854;BMP280;34673;52.808;17.856;2023-10-13T09:28:28;100225.03;;;12.70
48854;BMP280;34673;52.808;17.856;2023-10-13T09:30:56;100199.97;;;12.69
48854;BMP280;34673;52.808;17.856;2023-10-13T09:33:28;100204.94;;;12.81
48854;BMP280;34673;52.808;17.856;2023-10-13T09:36:00;100203.13;;;12.86
48854;BMP280;34673;52.808;17.856;2023-10-13T09:38:28;100197.03;;;12.88
48854;BMP280;34673;52.808;17.856;2023-10-13T09:40:56;100194.44;;;12.88
48854;BMP280;34673;52.808;17.856;2023-10-13T09:43:24;100205.38;;;13.02
48854;BMP280;34673;52.808;17.856;2023-10-13T09:46:01;100195.84;;;13.04
48854;BMP280;34673;52.808;17.856;2023-10-13T09:48:47;100182.78;;;13.05
48854;BMP280;34673;52.808;17.856;2023-10-13T09:51:16;100179.97;;;13.18
48854;BMP280;34673;52.808;17.856;2023-10-13T09:53:56;100176.38;;;13.23
48854;BMP280;34673;52.808;17.856;2023-10-13T09:56:39;100186.56;;;13.33
48854;BMP280;34673;52.808;17.856;2023-10-13T09:59:26;100175.22;;;13.38
48854;BMP280;34673;52.808;17.856;2023-10-13T10:02:04;100168.97;;;13.47
48854;BMP280;34673;52.808;17.856;2023-10-13T10:04:36;100155.84;;;13.51
48854;BMP280;34673;52.808;17.856;2023-10-13T10:07:28;100158.34;;;13.56
48854;BMP280;34673;52.808;17.856;2023-10-13T10:10:00;100161.59;;;13.64
48854;BMP280;34673;52.808;17.856;2023-10-13T10:13:34;100155.47;;;13.67
48854;BMP280;34673;52.808;17.856;2023-10-13T10:15:46;100139.81;;;13.70
48854;BMP280;34673;52.808;17.856;2023-10-13T10:18:21;100138.72;;;13.79
48854;BMP280;34673;52.808;17.856;2023-10-13T10:20:49;100140.28;;;13.86
48854;BMP280;34673;52.808;17.856;2023-10-13T10:23:25;100140.13;;;13.92
48854;BMP280;34673;52.808;17.856;2023-10-13T10:25:55;100130.53;;;13.95
48854;BMP280;34673;52.808;17.856;2023-10-13T10:28:38;100120.72;;;14.05
48854;BMP280;34673;52.808;17.856;2023-10-13T10:31:06;100103.06;;;14.16
48854;BMP280;34673;52.808;17.856;2023-10-13T10:33:40;100104.50;;;14.28
48854;BMP280;34673;52.808;17.856;2023-10-13T10:36:08;100093.81;;;14.39
48854;BMP280;34673;52.808;17.856;2023-10-13T10:38:55;100102.25;;;14.47
48854;BMP280;34673;52.808;17.856;2023-10-13T10:41:30;100088.97;;;14.58
48854;BMP280;34673;52.808;17.856;2023-10-13T10:44:14;100092.97;;;14.70
48854;BMP280;34673;52.808;17.856;2023-10-13T10:47:13;100083.78;;;14.86
48854;BMP280;34673;52.808;17.856;2023-10-13T10:49:58;100074.41;;;15.08
48854;BMP280;34673;52.808;17.856;2023-10-13T10:52:27;100073.84;;;15.27
48854;BMP280;34673;52.808;17.856;2023-10-13T10:55:04;100066.41;;;15.41
48854;BMP280;34673;52.808;17.856;2023-10-13T10:57:34;100066.88;;;15.54
48854;BMP280;34673;52.808;17.856;2023-10-13T11:00:04;100074.06;;;15.74
48854;BMP280;34673;52.808;17.856;2023-10-13T11:02:38;100051.00;;;15.88
48854;BMP280;34673;52.808;17.856;2023-10-13T11:05:06;100055.75;;;16.01
48854;BMP280;34673;52.808;17.856;2023-10-13T11:07:36;100055.22;;;16.16
48854;BMP280;34673;52.808;17.856;2023-10-13T11:10:10;100056.81;;;16.20
48854;BMP280;34673;52.808;17.856;2023-10-13T11:12:59;100028.72;;;16.03
48854;BMP280;34673;52.808;17.856;2023-10-13T11:15:43;100042.75;;;16.24
48854;BMP280;34673;52.808;17.856;2023-10-13T11:18:14;100026.97;;;16.27
48854;BMP280;34673;52.808;17.856;2023-10-13T11:20:48;100018.00;;;16.34
48854;BMP280;34673;52.808;17.856;2023-10-13T11:23:22;100037.59;;;16.46
48854;BMP280;34673;52.808;17.856;2023-10-13T11:25:59;100020.94;;;16.49
48854;BMP280;34673;52.808;17.856;2023-10-13T11:28:27;100022.53;;;16.53
48854;BMP280;34673;52.808;17.856;2023-10-13T11:30:58;100019.88;;;16.54
48854;BMP280;34673;52.808;17.856;2023-10-13T11:33:27;100012.84;;;16.56
48854;BMP280;34673;52.808;17.856;2023-10-13T11:35:56;100002.28;;;16.59
48854;BMP280;34673;52.808;17.856;2023-10-13T11:38:32;100011.63;;;16.65
48854;BMP280;34673;52.808;17.856;2023-10-13T11:41:08;100007.88;;;16.72
48854;BMP280;34673;52.808;17.856;2023-10-13T11:43:44;100002.44;;;16.78
48854;BMP280;34673;52.808;17.856;2023-10-13T11:46:24;100004.00;;;16.82
48854;BMP280;34673;52.808;17.856;2023-10-13T11:49:11;99984.81;;;16.83
48854;BMP280;34673;52.808;17.856;2023-10-13T11:51:47;99982.13;;;16.85
48854;BMP280;34673;52.808;17.856;2023-10-13T11:54:19;99965.03;;;16.78
48854;BMP280;34673;52.808;17.856;2023-10-13T11:56:48;99977.78;;;16.86
48854;BMP280;34673;52.808;17.856;2023-10-13T11:59:16;99977.78;;;16.86
48854;BMP280;34673;52.808;17.856;2023-10-13T12:01:48;99944.31;;;16.72
48854;BMP280;34673;52.808;17.856;2023-10-13T12:04:35;99969.94;;;16.86
48854;BMP280;34673;52.808;17.856;2023-10-13T12:07:22;99981.28;;;16.84
48854;BMP280;34673;52.808;17.856;2023-10-13T12:10:08;99969.28;;;16.80
48854;BMP280;34673;52.808;17.856;2023-10-13T12:12:42;99974.63;;;16.77
48854;BMP280;34673;52.808;17.856;2023-10-13T12:15:14;99967.66;;;16.76
48854;BMP280;34673;52.808;17.856;2023-10-13T12:17:53;99959.00;;;16.74
48854;BMP280;34673;52.808;17.856;2023-10-13T12:20:26;99967.78;;;16.73
48854;BMP280;34673;52.808;17.856;2023-10-13T12:23:00;99960.94;;;16.69
48854;BMP280;34673;52.808;17.856;2023-10-13T12:25:38;99955.84;;;16.66
48854;BMP280;34673;52.808;17.856;2023-10-13T12:28:23;99947.25;;;16.64
48854;BMP280;34673;52.808;17.856;2023-10-13T12:30:50;99938.63;;;16.62
48854;BMP280;34673;52.808;17.856;2023-10-13T12:33:20;99937.91;;;16.58
48854;BMP280;34673;52.808;17.856;2023-10-13T12:35:59;99941.16;;;16.63
48854;BMP280;34673;52.808;17.856;2023-10-13T12:38:39;99932.47;;;16.63
48854;BMP280;34673;52.808;17.856;2023-10-13T12:41:06;99931.59;;;16.64
48854;BMP280;34673;52.808;17.856;2023-10-13T12:44:02;99926.38;;;16.64
48854;BMP280;34673;52.808;17.856;2023-10-13T12:46:49;99924.66;;;16.63
48854;BMP280;34673;52.808;17.856;2023-10-13T12:49:36;99917.59;;;16.65
48854;BMP280;34673;52.808;17.856;2023-10-13T12:52:11;99904.53;;;16.65
48854;BMP280;34673;52.808;17.856;2023-10-13T12:54:54;99901.00;;;16.66
48854;BMP280;34673;52.808;17.856;2023-10-13T12:57:25;99893.97;;;16.68
48854;BMP280;34673;52.808;17.856;2023-10-13T12:59:53;99899.19;;;16.68
48854;BMP280;34673;52.808;17.856;2023-10-13T13:02:24;99894.06;;;16.67
48854;BMP280;34673;52.808;17.856;2023-10-13T13:04:56;99893.06;;;16.69
48854;BMP280;34673;52.808;17.856;2023-10-13T13:07:29;99852.94;;;16.50
48854;BMP280;34673;52.808;17.856;2023-10-13T13:09:56;99884.31;;;16.70
48854;BMP280;34673;52.808;17.856;2023-10-13T13:12:27;99872.16;;;16.69
48854;BMP280;34673;52.808;17.856;2023-10-13T13:14:57;99877.28;;;16.72
48854;BMP280;34673;52.808;17.856;2023-10-13T13:17:24;99864.22;;;16.72
48854;BMP280;34673;52.808;17.856;2023-10-13T13:19:52;99856.25;;;16.75
48854;BMP280;34673;52.808;17.856;2023-10-13T13:22:19;99857.84;;;16.79
48854;BMP280;34673;52.808;17.856;2023-10-13T13:24:47;99848.91;;;16.85
48854;BMP280;34673;52.808;17.856;2023-10-13T13:27:15;99839.94;;;16.91
48854;BMP280;34673;52.808;17.856;2023-10-13T13:29:46;99839.72;;;16.97
48854;BMP280;34673;52.808;17.856;2023-10-13T13:32:14;99837.75;;;17.02
48854;BMP280;34673;52.808;17.856;2023-10-13T13:34:55;99834.78;;;17.10
48854;BMP280;34673;52.808;17.856;2023-10-13T13:37:31;99835.38;;;17.16
48854;BMP280;34673;52.808;17.856;2023-10-13T13:39:58;99822.22;;;17.18
48854;BMP280;34673;52.808;17.856;2023-10-13T13:42:42;99827.22;;;17.24
48854;BMP280;34673;52.808;17.856;2023-10-13T13:45:15;99822.00;;;17.24
48854;BMP280;34673;52.808;17.856;2023-10-13T13:47:49;99815.88;;;17.23
48854;BMP280;34673;52.808;17.856;2023-10-13T13:50:27;99806.50;;;17.19
48854;BMP280;34673;52.808;17.856;2023-10-13T13:52:56;99805.56;;;17.20
48854;BMP280;34673;52.808;17.856;2023-10-13T13:55:25;99803.75;;;17.22
48854;BMP280;34673;52.808;17.856;2023-10-13T13:57:56;99809.97;;;17.20
48854;BMP280;34673;52.808;17.856;2023-10-13T14:00:23;99810.88;;;17.19
48854;BMP280;34673;52.808;17.856;2023-10-13T14:03:11;99810.94;;;17.17
48854;BMP280;34673;52.808;17.856;2023-10-13T14:06:00;99815.38;;;17.15
48854;BMP280;34673;52.808;17.856;2023-10-13T14:08:28;99793.97;;;17.07
48854;BMP280;34673;52.808;17.856;2023-10-13T14:10:55;99792.28;;;17.06
48854;BMP280;34673;52.808;17.856;2023-10-13T14:13:40;99791.34;;;17.07
48854;BMP280;34673;52.808;17.856;2023-10-13T14:16:19;99785.22;;;17.08
48854;BMP280;34673;52.808;17.856;2023-10-13T14:18:56;99777.38;;;17.08
48854;BMP280;34673;52.808;17.856;2023-10-13T14:21:24;99758.94;;;17.11
48854;BMP280;34673;52.808;17.856;2023-10-13T14:23:51;99757.13;;;17.13
48854;BMP280;34673;52.808;17.856;2023-10-13T14:26:21;99734.94;;;17.03
48854;BMP280;34673;52.808;17.856;2023-10-13T14:28:52;99743.13;;;17.14
48854;BMP280;34673;52.808;17.856;2023-10-13T14:31:32;99736.97;;;17.15
48854;BMP280;34673;52.808;17.856;2023-10-13T14:34:00;99749.13;;;17.16
48854;BMP280;34673;52.808;17.856;2023-10-13T14:36:27;99736.06;;;17.16
48854;BMP280;34673;52.808;17.856;2023-10-13T14:39:05;99733.38;;;17.18
48854;BMP280;34673;52.808;17.856;2023-10-13T14:41:37;99729.03;;;17.18
48854;BMP280;34673;52.808;17.856;2023-10-13T14:44:07;99730.69;;;17.19
48854;BMP280;34673;52.808;17.856;2023-10-13T14:46:34;99722.06;;;17.17
48854;BMP280;34673;52.808;17.856;2023-10-13T14:49:08;99721.94;;;17.20
48854;BMP280;34673;52.808;17.856;2023-10-13T14:51:36;99722.88;;;17.19